createdAt,value
2018-09-03T00:06:59.686Z,20.12
2018-09-03T00:09:33.134Z,20.15
2018-09-03T00:12:03.295Z,20.06
2018-09-03T00:14:32.578Z,20.12
2018-09-03T00:17:02.351Z,20.07
2018-09-03T00:19:32.113Z,20.01
2018-09-03T00:22:01.619Z,20.02
2018-09-03T00:24:30.968Z,19.98
2018-09-03T00:27:00.355Z,19.86
2018-09-03T00:29:29.913Z,19.89
2018-09-03T00:32:04.731Z,19.86
2018-09-03T00:51:56.118Z,19.69
2018-09-03T00:54:26.023Z,19.62
2018-09-03T00:56:55.692Z,19.70
2018-09-03T00:59:25.327Z,19.63
2018-09-03T01:01:55.157Z,19.58
2018-09-03T01:04:24.633Z,19.57
2018-09-03T01:06:54.261Z,19.58
2018-09-03T01:09:24.044Z,19.59
2018-09-03T01:11:53.921Z,19.60
2018-09-03T01:14:23.494Z,19.63
2018-09-03T01:16:52.951Z,19.57
2018-09-03T01:19:22.737Z,19.61
2018-09-03T01:21:52.024Z,19.51
2018-09-03T01:24:21.834Z,19.57
2018-09-03T01:26:51.718Z,19.58
2018-09-03T01:29:21.139Z,19.49
2018-09-03T01:49:12.537Z,19.63
2018-09-03T01:51:42.305Z,19.59
2018-09-03T01:54:11.787Z,19.61
2018-09-03T01:56:41.733Z,19.57
2018-09-03T01:59:11.216Z,19.57
2018-09-03T02:01:41.846Z,19.60
2018-09-03T02:04:11.216Z,19.65
2018-09-03T02:06:41.047Z,19.66
2018-09-03T02:09:12.272Z,19.62
2018-09-03T02:31:25.562Z,19.34
2018-09-03T02:33:55.405Z,19.30
2018-09-03T02:36:25.080Z,19.30
2018-09-03T02:38:54.730Z,19.32
2018-09-03T02:41:24.636Z,19.33
2018-09-03T02:43:54.201Z,19.28
2018-09-03T02:46:23.750Z,19.33
2018-09-03T02:48:53.779Z,19.25
2018-09-03T02:51:23.484Z,19.20
2018-09-03T02:53:53.273Z,19.17
2018-09-03T02:56:23.117Z,19.23
2018-09-03T02:58:52.630Z,19.20
2018-09-03T03:01:22.346Z,19.19
2018-09-03T03:03:52.248Z,19.18
2018-09-03T03:06:22.001Z,19.17
2018-09-03T03:08:51.515Z,19.15
2018-09-03T03:11:21.886Z,19.11
2018-09-03T03:13:51.437Z,19.13
2018-09-03T03:16:20.829Z,19.05
2018-09-03T03:18:50.631Z,19.09
2018-09-03T03:21:20.454Z,19.00
2018-09-03T03:23:50.013Z,19.02
2018-09-03T03:26:19.856Z,18.95
2018-09-03T03:28:49.698Z,18.96
2018-09-03T03:31:19.473Z,18.94
2018-09-03T03:33:49.225Z,18.83
2018-09-03T03:36:19.088Z,18.89
2018-09-03T03:38:48.791Z,18.87
2018-09-03T03:41:18.889Z,18.84
2018-09-03T03:43:48.465Z,18.77
2018-09-03T03:46:17.899Z,18.83
2018-09-03T03:48:47.441Z,18.83
2018-09-03T03:51:17.484Z,18.88
2018-09-03T03:53:46.855Z,18.86
2018-09-03T03:56:16.591Z,18.86
2018-09-03T03:58:46.261Z,18.80
2018-09-03T04:01:15.693Z,18.81
2018-09-03T04:03:46.476Z,18.86
2018-09-03T04:06:16.125Z,18.97
2018-09-03T04:08:45.536Z,19.00
2018-09-03T04:11:15.657Z,19.08
2018-09-03T04:13:45.279Z,19.10
2018-09-03T04:16:14.827Z,19.03
2018-09-03T04:18:46.337Z,19.06
2018-09-03T04:21:15.915Z,18.93
2018-09-03T04:23:45.712Z,18.84
2018-09-03T04:26:15.191Z,18.86
2018-09-03T04:28:44.806Z,18.86
2018-09-03T04:31:14.478Z,18.92
2018-09-03T04:33:44.323Z,18.89
2018-09-03T04:36:13.776Z,18.95
2018-09-03T04:38:43.427Z,18.94
2018-09-03T04:41:13.478Z,18.95
2018-09-03T04:43:43.139Z,18.91
2018-09-03T04:46:12.701Z,18.95
2018-09-03T04:48:42.561Z,19.06
2018-09-03T04:51:12.461Z,19.07
2018-09-03T04:53:41.770Z,19.17
2018-09-03T04:56:11.385Z,19.19
2018-09-03T04:58:40.874Z,19.32
2018-09-03T05:01:10.613Z,19.34
2018-09-03T05:03:40.310Z,19.34
2018-09-03T05:06:09.849Z,19.40
2018-09-03T05:08:39.417Z,19.41
2018-09-03T05:11:08.973Z,19.45
2018-09-03T05:13:38.527Z,19.43
2018-09-03T05:16:08.152Z,19.45
2018-09-03T05:18:37.729Z,19.45
2018-09-03T05:21:07.654Z,19.38
2018-09-03T05:23:37.181Z,19.34
2018-09-03T05:26:07.048Z,19.42
2018-09-03T05:28:36.328Z,19.53
2018-09-03T05:31:06.064Z,19.58
2018-09-03T05:33:37.300Z,19.76
2018-09-03T05:36:06.921Z,19.87
2018-09-03T05:38:36.442Z,19.97
2018-09-03T05:41:05.952Z,20.15
2018-09-03T05:43:35.501Z,20.31
2018-09-03T05:46:05.181Z,20.49
2018-09-03T05:48:34.665Z,20.71
2018-09-03T05:51:04.298Z,20.78
2018-09-03T05:53:34.421Z,20.87
2018-09-03T05:56:04.134Z,20.85
2018-09-03T05:58:33.780Z,20.75
2018-09-03T06:01:04.581Z,20.88
2018-09-03T06:03:34.159Z,20.87
2018-09-03T06:06:03.906Z,20.97
2018-09-03T06:08:34.023Z,21.04
2018-09-03T06:11:03.763Z,20.99
2018-09-03T06:13:33.249Z,21.07
2018-09-03T06:16:02.975Z,21.07
2018-09-03T06:18:32.578Z,21.17
2018-09-03T06:21:02.209Z,21.23
2018-09-03T06:23:31.884Z,21.31
2018-09-03T06:26:01.253Z,21.21
2018-09-03T06:28:30.988Z,21.18
2018-09-03T06:31:00.395Z,21.13
2018-09-03T06:33:30.173Z,21.10
2018-09-03T06:35:59.531Z,21.23
2018-09-03T06:38:29.421Z,21.23
2018-09-03T06:40:58.948Z,21.14
2018-09-03T06:43:29.599Z,21.05
2018-09-03T06:45:59.096Z,21.18
2018-09-03T06:48:28.745Z,21.38
2018-09-03T06:51:01.071Z,21.35
2018-09-03T06:53:30.904Z,21.58
2018-09-03T06:56:00.297Z,21.72
2018-09-03T06:58:30.330Z,21.92
2018-09-03T07:00:59.935Z,21.93
2018-09-03T07:03:29.733Z,21.99
2018-09-03T07:05:59.621Z,22.10
2018-09-03T07:08:29.216Z,22.30
2018-09-03T07:10:58.760Z,22.45
2018-09-03T07:13:28.549Z,22.64
2018-09-03T07:15:57.985Z,22.70
2018-09-03T07:18:27.649Z,22.86
2018-09-03T07:20:57.163Z,22.99
2018-09-03T07:23:27.071Z,22.88
2018-09-03T07:25:56.349Z,22.96
2018-09-03T07:28:26.472Z,23.07
2018-09-03T07:30:56.158Z,23.05
2018-09-03T07:33:25.812Z,23.06
2018-09-03T07:35:55.461Z,23.09
2018-09-03T07:38:25.332Z,23.11
2018-09-03T07:40:54.732Z,23.17
2018-09-03T07:43:24.761Z,23.13
2018-09-03T07:45:54.632Z,23.13
2018-09-03T07:48:24.426Z,23.20
2018-09-03T07:50:54.626Z,23.42
2018-09-03T07:53:24.312Z,23.44
2018-09-03T07:55:53.759Z,23.38
2018-09-03T07:58:24.581Z,23.51
2018-09-03T08:00:54.481Z,23.67
2018-09-03T08:03:23.895Z,23.77
2018-09-03T08:05:53.909Z,23.92
2018-09-03T08:08:23.258Z,23.93
2018-09-03T08:10:52.857Z,23.96
2018-09-03T08:13:27.338Z,23.96
2018-09-03T08:15:56.743Z,23.99
2018-09-03T08:18:26.134Z,24.20
2018-09-03T08:20:55.819Z,24.40
2018-09-03T08:23:25.288Z,24.61
2018-09-03T08:25:54.736Z,24.86
2018-09-03T08:28:24.750Z,24.98
2018-09-03T08:30:54.567Z,25.00
2018-09-03T08:33:24.298Z,25.04
2018-09-03T08:35:54.024Z,25.16
2018-09-03T08:38:23.602Z,25.24
2018-09-03T08:40:53.158Z,25.24
2018-09-03T08:43:23.118Z,25.26
2018-09-03T08:45:52.896Z,25.32
2018-09-03T08:48:22.446Z,25.51
2018-09-03T08:50:52.360Z,25.69
2018-09-03T08:53:21.777Z,25.79
2018-09-03T08:55:51.371Z,25.90
2018-09-03T08:58:21.726Z,26.01
2018-09-03T09:00:51.408Z,26.14
2018-09-03T09:03:26.235Z,26.24
2018-09-03T09:05:55.921Z,26.27
2018-09-03T09:08:25.352Z,26.31
2018-09-03T09:10:55.345Z,26.49
2018-09-03T09:13:25.080Z,26.72
2018-09-03T09:15:54.385Z,26.74
2018-09-03T09:18:24.544Z,26.88
2018-09-03T09:20:54.309Z,26.80
2018-09-03T09:23:23.899Z,26.87
2018-09-03T09:25:53.568Z,27.02
2018-09-03T09:28:23.150Z,27.04
2018-09-03T09:30:53.467Z,26.78
2018-09-03T09:33:23.390Z,26.88
2018-09-03T09:35:53.066Z,27.22
2018-09-03T09:38:22.611Z,27.27
2018-09-03T09:40:52.188Z,27.51
2018-09-03T09:43:21.694Z,27.40
2018-09-03T09:45:51.533Z,27.40
2018-09-03T09:48:21.337Z,27.29
2018-09-03T09:50:50.972Z,27.40
2018-09-03T09:53:20.559Z,27.79
2018-09-03T09:55:50.372Z,27.91
2018-09-03T09:58:19.807Z,27.99
2018-09-03T10:00:55.072Z,28.36
2018-09-03T10:03:24.597Z,28.51
2018-09-03T10:05:54.085Z,28.74
2018-09-03T10:08:24.022Z,28.96
2018-09-03T10:10:53.692Z,29.18
2018-09-03T10:13:23.121Z,29.43
2018-09-03T10:15:53.111Z,29.59
2018-09-03T10:18:23.239Z,29.43
2018-09-03T10:20:52.652Z,29.41
2018-09-03T10:23:23.197Z,29.40
2018-09-03T10:25:53.679Z,29.68
2018-09-03T10:28:23.273Z,29.66
2018-09-03T10:30:53.242Z,29.84
2018-09-03T10:33:22.895Z,29.38
2018-09-03T10:35:52.621Z,29.66
2018-09-03T10:38:22.550Z,29.84
2018-09-03T10:40:52.557Z,29.81
2018-09-03T10:43:22.473Z,30.25
2018-09-03T10:45:52.372Z,30.30
2018-09-03T10:48:21.637Z,30.54
2018-09-03T10:50:50.982Z,30.34
2018-09-03T10:53:20.424Z,30.46
2018-09-03T10:55:50.036Z,30.03
2018-09-03T10:58:19.499Z,29.40
2018-09-03T11:00:49.112Z,28.88
2018-09-03T11:03:18.662Z,28.82
2018-09-03T11:05:48.472Z,28.58
2018-09-03T11:08:18.577Z,28.12
2018-09-03T11:10:48.167Z,27.99
2018-09-03T11:13:18.161Z,27.82
2018-09-03T11:15:48.009Z,27.75
2018-09-03T11:18:17.629Z,27.72
2018-09-03T11:20:47.229Z,27.53
2018-09-03T11:23:17.378Z,27.50
2018-09-03T11:25:47.252Z,27.58
2018-09-03T11:28:17.027Z,27.51
2018-09-03T11:30:46.600Z,27.38
2018-09-03T11:33:16.115Z,27.30
2018-09-03T11:35:45.582Z,27.27
2018-09-03T11:38:15.014Z,27.34
2018-09-03T11:40:44.517Z,27.27
2018-09-03T11:43:14.070Z,27.21
2018-09-03T11:45:44.259Z,27.23
2018-09-03T11:48:13.610Z,27.18
2018-09-03T11:50:43.093Z,27.08
2018-09-03T11:53:13.132Z,27.08
2018-09-03T11:55:42.693Z,27.08
2018-09-03T11:58:12.498Z,27.02
2018-09-03T12:00:41.869Z,26.23
2018-09-03T12:03:11.374Z,25.48
2018-09-03T12:05:41.072Z,25.04
2018-09-03T12:08:11.448Z,24.78
2018-09-03T12:10:41.300Z,24.47
2018-09-03T12:13:11.207Z,24.29
2018-09-03T12:15:44.018Z,24.19
2018-09-03T12:18:13.440Z,24.04
2018-09-03T12:20:42.875Z,23.85
2018-09-03T12:23:12.577Z,23.60
2018-09-03T12:25:42.122Z,23.38
2018-09-03T12:28:11.679Z,23.43
2018-09-03T12:30:41.838Z,23.40
2018-09-03T12:33:11.621Z,23.41
2018-09-03T12:35:41.308Z,23.47
2018-09-03T12:38:11.355Z,23.44
2018-09-03T12:40:41.148Z,23.57
2018-09-03T12:43:10.889Z,23.62
2018-09-03T12:45:46.368Z,23.78
2018-09-03T12:48:16.132Z,23.73
2018-09-03T12:50:45.653Z,23.76
2018-09-03T12:53:15.953Z,23.65
2018-09-03T12:55:45.367Z,23.77
2018-09-03T12:58:15.054Z,23.73
2018-09-03T13:00:44.882Z,23.78
2018-09-03T13:03:14.295Z,23.64
2018-09-03T13:05:43.989Z,23.70
2018-09-03T13:08:14.079Z,23.78
2018-09-03T13:10:43.645Z,23.65
2018-09-03T13:13:13.216Z,23.17
2018-09-03T13:15:42.936Z,22.69
2018-09-03T13:18:12.701Z,22.33
2018-09-03T13:20:42.369Z,22.30
2018-09-03T13:23:12.089Z,22.81
2018-09-03T13:25:41.822Z,23.66
2018-09-03T13:28:11.490Z,23.96
2018-09-03T13:30:41.681Z,24.51
2018-09-03T13:33:11.422Z,24.89
2018-09-03T13:35:40.989Z,25.38
2018-09-03T13:38:15.896Z,25.75
2018-09-03T13:40:45.798Z,26.12
2018-09-03T13:43:15.467Z,25.80
2018-09-03T13:45:45.287Z,25.50
2018-09-03T13:48:14.984Z,25.09
2018-09-03T13:50:44.604Z,24.87
2018-09-03T13:53:14.753Z,24.60
2018-09-03T13:55:44.233Z,24.44
2018-09-03T13:58:13.698Z,24.43
2018-09-03T14:00:43.601Z,24.35
2018-09-03T14:03:13.198Z,24.38
2018-09-03T14:05:42.792Z,24.64
2018-09-03T14:08:13.082Z,24.68
2018-09-03T14:10:42.903Z,24.45
2018-09-03T14:13:12.421Z,25.15
2018-09-03T14:15:42.457Z,25.53
2018-09-03T14:18:12.150Z,25.57
2018-09-03T14:20:41.642Z,25.41
2018-09-03T14:23:11.693Z,25.30
2018-09-03T14:25:41.081Z,25.32
2018-09-03T14:28:10.594Z,25.20
2018-09-03T14:30:40.403Z,25.25
2018-09-03T14:33:10.045Z,25.33
2018-09-03T14:35:39.529Z,25.28
2018-09-03T14:38:09.496Z,25.23
2018-09-03T14:40:39.061Z,25.13
2018-09-03T14:43:08.564Z,25.02
2018-09-03T14:45:38.330Z,24.85
2018-09-03T14:48:07.746Z,24.83
2018-09-03T14:50:37.696Z,24.83
2018-09-03T14:53:07.712Z,24.83
2018-09-03T14:55:37.307Z,24.82
2018-09-03T14:58:08.262Z,24.90
2018-09-03T15:00:37.749Z,25.31
2018-09-03T15:03:07.472Z,25.52
2018-09-03T15:05:38.009Z,25.46
2018-09-03T15:08:07.468Z,25.43
2018-09-03T15:10:36.951Z,25.24
2018-09-03T15:13:06.941Z,25.07
2018-09-03T15:15:36.422Z,24.95
2018-09-03T15:18:05.959Z,24.83
2018-09-03T15:20:35.517Z,24.71
2018-09-03T15:23:05.054Z,24.68
2018-09-03T15:25:34.795Z,24.58
2018-09-03T15:28:04.684Z,24.55
2018-09-03T15:30:34.546Z,24.52
2018-09-03T15:33:04.304Z,24.47
2018-09-03T15:35:33.598Z,24.40
2018-09-03T15:38:03.298Z,24.44
2018-09-03T15:40:32.857Z,24.31
2018-09-03T15:43:03.390Z,24.26
2018-09-03T15:45:32.874Z,24.31
2018-09-03T15:48:02.433Z,24.35
2018-09-03T15:50:34.201Z,24.25
2018-09-03T15:53:04.740Z,24.28
2018-09-03T15:55:35.235Z,24.38
2018-09-03T15:58:04.910Z,24.30
2018-09-03T16:00:34.885Z,24.14
2018-09-03T16:03:05.090Z,24.02
2018-09-03T16:05:34.725Z,23.90
2018-09-03T16:08:04.279Z,23.77
2018-09-03T16:10:34.523Z,23.73
2018-09-03T16:13:03.978Z,23.67
2018-09-03T16:15:33.681Z,23.52
2018-09-03T16:18:03.649Z,23.52
2018-09-03T16:20:34.030Z,23.37
2018-09-03T16:23:03.685Z,23.12
2018-09-03T16:25:33.551Z,23.07
2018-09-03T16:28:03.418Z,23.03
2018-09-03T16:30:33.173Z,22.91
2018-09-03T16:33:03.426Z,22.71
2018-09-03T16:35:33.102Z,22.63
2018-09-03T16:38:03.681Z,22.60
2018-09-03T16:40:33.673Z,22.57
2018-09-03T16:43:03.320Z,22.55
2018-09-03T16:45:32.877Z,22.48
2018-09-03T16:48:03.080Z,22.42
2018-09-03T16:50:32.592Z,22.32
2018-09-03T16:53:02.270Z,22.47
2018-09-03T16:55:32.178Z,22.39
2018-09-03T16:58:01.701Z,22.30
2018-09-03T17:00:31.193Z,22.20
2018-09-03T17:03:02.539Z,22.09
2018-09-03T17:05:32.307Z,22.13
2018-09-03T17:08:01.753Z,22.02
2018-09-03T17:10:31.301Z,22.16
2018-09-03T17:13:02.053Z,22.15
2018-09-03T17:15:32.247Z,21.89
2018-09-03T17:18:02.103Z,21.85
2018-09-03T17:20:31.670Z,21.82
2018-09-03T17:23:01.630Z,21.90
2018-09-03T17:25:31.512Z,21.93
2018-09-03T17:28:01.343Z,21.89
2018-09-03T17:30:31.523Z,21.81
2018-09-03T17:33:01.073Z,21.98
2018-09-03T17:35:30.622Z,21.93
2018-09-03T17:38:00.327Z,21.94
2018-09-03T17:40:30.013Z,21.85
2018-09-03T17:42:59.521Z,21.84
2018-09-03T17:45:29.643Z,21.75
2018-09-03T17:47:59.101Z,21.75
2018-09-03T17:50:28.691Z,21.87
2018-09-03T17:52:58.470Z,21.90
2018-09-03T17:55:27.886Z,21.73
2018-09-03T17:57:57.297Z,21.67
2018-09-03T18:00:27.302Z,21.78
2018-09-03T18:02:56.594Z,21.76
2018-09-03T18:05:26.098Z,21.74
2018-09-03T18:07:55.989Z,21.72
2018-09-03T18:10:25.703Z,21.54
2018-09-03T18:12:55.182Z,21.53
2018-09-03T18:15:24.736Z,21.45
2018-09-03T18:17:54.211Z,21.29
2018-09-03T18:20:23.834Z,21.40
2018-09-03T18:22:54.489Z,21.37
2018-09-03T18:25:24.178Z,21.37
2018-09-03T18:27:53.991Z,21.38
2018-09-03T18:30:24.150Z,21.43
2018-09-03T18:32:53.878Z,21.38
2018-09-03T18:35:23.287Z,21.42
2018-09-03T18:37:53.135Z,21.41
2018-09-03T18:40:22.854Z,21.49
2018-09-03T18:42:52.552Z,21.48
2018-09-03T18:45:22.481Z,21.28
2018-09-03T18:47:52.077Z,21.23
2018-09-03T18:50:21.796Z,21.25
2018-09-03T18:52:51.621Z,21.13
2018-09-03T18:55:21.230Z,21.17
2018-09-03T18:57:50.641Z,21.25
2018-09-03T19:00:20.415Z,21.21
2018-09-03T19:02:49.935Z,21.14
2018-09-03T19:05:19.303Z,21.11
2018-09-03T19:07:49.300Z,21.15
2018-09-03T19:10:18.892Z,21.08
2018-09-03T19:12:48.346Z,21.13
2018-09-03T19:15:18.826Z,20.97
2018-09-03T19:17:48.328Z,20.85
2018-09-03T19:20:17.939Z,20.89
2018-09-03T19:22:47.962Z,20.62
2018-09-03T19:25:17.347Z,20.53
2018-09-03T19:27:46.785Z,20.50
2018-09-03T19:30:17.174Z,20.51
2018-09-03T19:32:46.660Z,20.43
2018-09-03T19:35:16.524Z,20.37
2018-09-03T19:37:46.339Z,20.08
2018-09-03T19:40:15.914Z,20.02
2018-09-03T19:42:45.575Z,20.11
2018-09-03T19:45:15.462Z,20.01
2018-09-03T19:47:44.935Z,20.05
2018-09-03T19:50:14.318Z,20.05
2018-09-03T19:52:44.281Z,20.06
2018-09-03T19:55:13.667Z,20.16
2018-09-03T19:57:43.190Z,20.14
2018-09-03T20:00:13.094Z,20.02
2018-09-03T20:02:42.808Z,19.95
2018-09-03T20:05:12.525Z,19.78
2018-09-03T20:07:42.754Z,19.72
2018-09-03T20:10:12.328Z,19.70
2018-09-03T20:12:41.962Z,19.66
2018-09-03T20:15:14.522Z,19.49
2018-09-03T20:17:44.181Z,19.43
2018-09-03T20:20:13.889Z,19.49
2018-09-03T20:22:44.080Z,19.50
2018-09-03T20:25:13.501Z,19.49
2018-09-03T20:27:43.012Z,19.49
2018-09-03T20:30:12.845Z,19.59
2018-09-03T20:32:42.439Z,19.36
2018-09-03T20:35:12.321Z,19.34
2018-09-03T20:37:42.664Z,19.22
2018-09-03T20:40:12.389Z,19.23
2018-09-03T20:42:41.865Z,19.09
2018-09-03T20:45:11.821Z,18.95
2018-09-03T20:47:41.190Z,18.67
2018-09-03T20:50:10.567Z,18.79
2018-09-03T20:52:40.436Z,18.77
2018-09-03T20:55:10.200Z,18.77
2018-09-03T20:57:40.053Z,18.63
2018-09-03T21:00:10.364Z,18.55
2018-09-03T21:02:40.210Z,18.73
2018-09-03T21:05:09.879Z,18.80
2018-09-03T21:07:40.060Z,18.89
2018-09-03T21:10:09.902Z,18.80
2018-09-03T21:12:39.643Z,18.88
2018-09-03T21:15:09.554Z,18.92
2018-09-03T21:17:39.148Z,18.87
2018-09-03T21:20:08.646Z,18.94
2018-09-03T21:22:38.705Z,18.98
2018-09-03T21:25:08.396Z,19.01
2018-09-03T21:27:37.970Z,19.10
2018-09-03T21:30:08.461Z,18.94
2018-09-03T21:32:37.813Z,18.97
2018-09-03T21:35:07.634Z,19.01
2018-09-03T21:37:37.781Z,19.09
2018-09-03T21:40:07.961Z,19.05
2018-09-03T21:42:37.569Z,19.07
2018-09-03T21:45:07.930Z,19.07
2018-09-03T21:47:37.486Z,19.04
2018-09-03T21:50:07.233Z,19.13
2018-09-03T21:52:37.452Z,19.12
2018-09-03T21:55:06.991Z,18.95
2018-09-03T21:57:36.771Z,19.03
2018-09-03T22:00:06.885Z,19.13
2018-09-03T22:02:37.561Z,19.09
2018-09-03T22:05:07.241Z,19.01
2018-09-03T22:07:36.974Z,18.92
2018-09-03T22:10:06.741Z,19.08
2018-09-03T22:12:36.270Z,18.93
2018-09-03T22:15:06.202Z,19.10
2018-09-03T22:17:36.307Z,19.03
2018-09-03T22:20:05.926Z,18.87
2018-09-03T22:22:35.860Z,18.83
2018-09-03T22:25:05.841Z,18.83
2018-09-03T22:27:35.729Z,18.76
2018-09-03T22:30:06.225Z,18.83
2018-09-03T22:32:35.800Z,18.83
2018-09-03T22:35:05.490Z,18.76
2018-09-03T22:37:34.952Z,18.82
2018-09-03T22:40:04.701Z,18.80
2018-09-03T22:42:34.645Z,18.86
2018-09-03T22:45:04.489Z,18.81
2018-09-03T22:47:34.047Z,18.84
2018-09-03T22:50:03.409Z,18.86
2018-09-03T22:52:33.401Z,18.79
2018-09-03T22:55:02.974Z,18.86
2018-09-03T22:57:33.114Z,18.87
2018-09-03T23:00:02.582Z,18.85
2018-09-03T23:02:36.083Z,18.87
2018-09-03T23:05:05.986Z,18.90
2018-09-03T23:07:35.552Z,18.88
2018-09-03T23:10:05.133Z,18.77
2018-09-03T23:12:35.209Z,18.74
2018-09-03T23:15:05.277Z,18.71
2018-09-03T23:17:36.121Z,18.65
2018-09-03T23:20:05.630Z,18.72
2018-09-03T23:22:35.671Z,18.67
2018-09-03T23:25:05.581Z,18.71
2018-09-03T23:27:35.062Z,18.74
2018-09-03T23:30:04.640Z,18.71
2018-09-03T23:32:34.873Z,18.62
2018-09-03T23:35:04.679Z,18.68
2018-09-03T23:37:34.198Z,18.65
2018-09-03T23:40:04.061Z,18.56
2018-09-03T23:42:33.827Z,18.64
2018-09-03T23:45:03.273Z,18.59
2018-09-03T23:47:33.181Z,18.65
2018-09-03T23:50:02.693Z,18.64
2018-09-03T23:52:32.434Z,18.70
2018-09-03T23:55:02.433Z,18.61
2018-09-03T23:57:32.501Z,18.63
